Edenfield, United Kingdom
Current Conditions -  °F | °C
As of 10:20 PM on Monday 22 Dec 2014 (Local Time) from EGCC Reporting Station
Broken Clouds Broken Clouds  
Wind Chill: 54°   Ceiling: 1800
Heat Index: 54°   Visibility: 6mi
Dew Point: 48°   Wind: 23mph
Humidity: 82%   Direction: 240°WSW
Pressure: 29.85"   Gusts: NA
Location:  53.67°N, 2.3°W
Report Text: EGCC 222220Z 24020KT 9999 BKN018 12/09 Q1011 NOSIG
Loading
Personal Weather Stations






























Interactive Weather Map New forecast layout! Learn more

10-Day Weather Forecast

Advertisements
Track Severe Weather on mobile